Terminal Aerodrome Forecast
Issued by NWS Tampa Bay Area, FL

Home | Current Version | Previous Version | Text Only | Print | Product List | Glossary Off
Versions: 1 2 3 4 5 6 7 8 9 10 11 12 13 14 15 16 17 18

000
FTUS42 KTBW 032326
TAFFMY
TAF
KFMY 032326Z 0400/0424 07008KT P6SM FEW035 FEW250
     FM041400 11009KT P6SM FEW090 SCT250
     FM041800 14009KT P6SM SCT025
     FM041900 14009KT P6SM SCT025=

USA.gov is the U.S. government's official web portal to all federal, state and local government web resources and services.